Romeo-charlie II — FO2619 — position and weather

sailwx.info

Track history (hours):
 
Tides and Currents Weather Stations Pressure Air Temp Water Temp Dewpoint Dewpoint Depression Visibility Wind Speed Wind Dir Waves Ship Positions

Romeo-charlie II

Last reported at 2017-Aug-20 12:19 UTC. Time now 2017-Sep-21 14:12 UTC.
Position N 47°36' W 002°57'.
Warning: this ship's position is 32 days out of date.

Length 12 m.

Type: Sailing vessel. MMSI: 227728860.

Date/timePositionNaut miles runAvg speedWind from/ knotsBaromVisibWave heightAir tempDewpointWater temp
2017-Aug-20 12:19N 47°36' W 002°57'1 1.5
2017-Aug-20 11:59N 47°36' W 002°57'3 5.2
2017-Aug-20 11:27N 47°33' W 002°55'0 0.4
2017-Aug-20 10:56N 47°33' W 002°55'1 2.7
2017-Aug-20 10:28N 47°34' W 002°56'2 4.6
2017-Aug-20 09:59N 47°36' W 002°57'  
2017-Aug-16 15:14N 47°36' W 002°57'2 4.7
2017-Aug-16 14:47N 47°34' W 002°56'2 5.5
2017-Aug-16 14:26N 47°35' W 002°53'3 6.2
2017-Aug-16 14:00N 47°37' W 002°50'2 5.0
2017-Aug-16 13:30N 47°38' W 002°47'3 4.4
2017-Aug-16 12:54N 47°37' W 002°50'3 4.3
2017-Aug-16 12:13N 47°34' W 002°53'1 5.6
2017-Aug-16 12:00N 47°34' W 002°55'2 4.7
2017-Aug-16 11:29N 47°36' W 002°57'  
2017-Aug-11 14:49N 47°36' W 002°57'2 5.8
2017-Aug-11 14:26N 47°34' W 002°56'  
Track history (hours):
 
Tides and Currents Weather Stations Pressure Air Temp Water Temp Dewpoint Dewpoint Depression Visibility Wind Speed Wind Dir Waves Ship Positions

Romeo-charlie II

Last reported at 2017-Aug-20 12:19 UTC. Time now 2017-Sep-21 14:12 UTC.
Position N 47°36' W 002°57'.
Warning: this ship's position is 32 days out of date.

Length 12 m.

Type: Sailing vessel. MMSI: 227728860.

Date/timePositionNaut miles runAvg speedWind from/ knotsBaromVisibWave heightAir tempDewpointWater temp
2017-Aug-20 12:19N 47°36' W 002°57'1 1.5
2017-Aug-20 11:59N 47°36' W 002°57'3 5.2
2017-Aug-20 11:27N 47°33' W 002°55'0 0.4
2017-Aug-20 10:56N 47°33' W 002°55'1 2.7
2017-Aug-20 10:28N 47°34' W 002°56'2 4.6
2017-Aug-20 09:59N 47°36' W 002°57'  
2017-Aug-16 15:14N 47°36' W 002°57'2 4.7
2017-Aug-16 14:47N 47°34' W 002°56'2 5.5
2017-Aug-16 14:26N 47°35' W 002°53'3 6.2
2017-Aug-16 14:00N 47°37' W 002°50'2 5.0
2017-Aug-16 13:30N 47°38' W 002°47'3 4.4
2017-Aug-16 12:54N 47°37' W 002°50'3 4.3
2017-Aug-16 12:13N 47°34' W 002°53'1 5.6
2017-Aug-16 12:00N 47°34' W 002°55'2 4.7
2017-Aug-16 11:29N 47°36' W 002°57'  
2017-Aug-11 14:49N 47°36' W 002°57'2 5.8
2017-Aug-11 14:26N 47°34' W 002°56'  

Dump ship's entire track history